sensor_id;sensor_type;location;lat;lon;timestamp;P1;durP1;ratioP1;P2;durP2;ratioP2
64826;SDS011;51265;53.972;12.286;2022-12-20T00:01:21;63.92;;;21.98;;
64826;SDS011;51265;53.972;12.286;2022-12-20T00:03:51;57.00;;;22.08;;
64826;SDS011;51265;53.972;12.286;2022-12-20T00:06:20;59.15;;;22.15;;
64826;SDS011;51265;53.972;12.286;2022-12-20T00:08:55;54.95;;;22.75;;
64826;SDS011;51265;53.972;12.286;2022-12-20T00:11:26;70.45;;;22.88;;
64826;SDS011;51265;53.972;12.286;2022-12-20T00:13:54;63.88;;;22.50;;
64826;SDS011;51265;53.972;12.286;2022-12-20T00:16:23;61.30;;;23.27;;
64826;SDS011;51265;53.972;12.286;2022-12-20T00:18:53;69.90;;;23.30;;
64826;SDS011;51265;53.972;12.286;2022-12-20T00:23:53;61.13;;;22.08;;
64826;SDS011;51265;53.972;12.286;2022-12-20T00:26:22;63.75;;;23.73;;
64826;SDS011;51265;53.972;12.286;2022-12-20T00:28:52;63.13;;;22.42;;
64826;SDS011;51265;53.972;12.286;2022-12-20T00:31:24;67.50;;;23.42;;
64826;SDS011;51265;53.972;12.286;2022-12-20T00:33:54;62.65;;;22.77;;
64826;SDS011;51265;53.972;12.286;2022-12-20T00:36:23;56.05;;;22.60;;
64826;SDS011;51265;53.972;12.286;2022-12-20T00:38:53;63.15;;;23.33;;
64826;SDS011;51265;53.972;12.286;2022-12-20T00:41:26;57.85;;;22.58;;
64826;SDS011;51265;53.972;12.286;2022-12-20T00:43:55;52.30;;;22.33;;
64826;SDS011;51265;53.972;12.286;2022-12-20T00:46:23;63.15;;;22.77;;
64826;SDS011;51265;53.972;12.286;2022-12-20T00:48:54;63.60;;;22.10;;
64826;SDS011;51265;53.972;12.286;2022-12-20T00:51:25;62.97;;;21.45;;
64826;SDS011;51265;53.972;12.286;2022-12-20T00:53:54;58.17;;;20.45;;
64826;SDS011;51265;53.972;12.286;2022-12-20T00:56:22;50.78;;;21.25;;
64826;SDS011;51265;53.972;12.286;2022-12-20T00:58:49;51.03;;;20.13;;
64826;SDS011;51265;53.972;12.286;2022-12-20T01:01:19;56.10;;;21.23;;
64826;SDS011;51265;53.972;12.286;2022-12-20T01:03:52;51.40;;;21.13;;
64826;SDS011;51265;53.972;12.286;2022-12-20T01:06:20;68.15;;;21.80;;
64826;SDS011;51265;53.972;12.286;2022-12-20T01:08:50;59.35;;;21.55;;
64826;SDS011;51265;53.972;12.286;2022-12-20T01:11:19;52.95;;;21.27;;
64826;SDS011;51265;53.972;12.286;2022-12-20T01:13:52;56.65;;;22.20;;
64826;SDS011;51265;53.972;12.286;2022-12-20T01:16:23;54.42;;;21.00;;
64826;SDS011;51265;53.972;12.286;2022-12-20T01:18:51;54.28;;;21.42;;
64826;SDS011;51265;53.972;12.286;2022-12-20T01:21:22;55.47;;;21.73;;
64826;SDS011;51265;53.972;12.286;2022-12-20T01:23:51;61.45;;;21.00;;
64826;SDS011;51265;53.972;12.286;2022-12-20T01:26:19;67.38;;;23.70;;
64826;SDS011;51265;53.972;12.286;2022-12-20T01:28:51;58.97;;;22.00;;
64826;SDS011;51265;53.972;12.286;2022-12-20T01:31:20;64.07;;;22.50;;
64826;SDS011;51265;53.972;12.286;2022-12-20T01:33:55;55.97;;;21.45;;
64826;SDS011;51265;53.972;12.286;2022-12-20T01:36:26;55.42;;;21.85;;
64826;SDS011;51265;53.972;12.286;2022-12-20T01:39:00;58.65;;;22.58;;
64826;SDS011;51265;53.972;12.286;2022-12-20T01:41:35;61.45;;;21.13;;
64826;SDS011;51265;53.972;12.286;2022-12-20T01:46:53;58.20;;;21.63;;
64826;SDS011;51265;53.972;12.286;2022-12-20T01:49:26;62.83;;;21.92;;
64826;SDS011;51265;53.972;12.286;2022-12-20T01:52:05;65.85;;;22.55;;
64826;SDS011;51265;53.972;12.286;2022-12-20T01:55:21;65.80;;;21.58;;
64826;SDS011;51265;53.972;12.286;2022-12-20T01:57:52;56.00;;;18.98;;
64826;SDS011;51265;53.972;12.286;2022-12-20T02:00:25;55.75;;;20.58;;
64826;SDS011;51265;53.972;12.286;2022-12-20T02:02:53;57.03;;;19.23;;
64826;SDS011;51265;53.972;12.286;2022-12-20T02:05:21;47.75;;;19.45;;
64826;SDS011;51265;53.972;12.286;2022-12-20T02:07:50;42.63;;;18.48;;
64826;SDS011;51265;53.972;12.286;2022-12-20T02:16:21;53.70;;;19.67;;
64826;SDS011;51265;53.972;12.286;2022-12-20T02:19:09;53.80;;;19.25;;
64826;SDS011;51265;53.972;12.286;2022-12-20T02:21:56;46.78;;;17.10;;
64826;SDS011;51265;53.972;12.286;2022-12-20T02:30:19;58.28;;;19.45;;
64826;SDS011;51265;53.972;12.286;2022-12-20T02:32:54;47.70;;;19.20;;
64826;SDS011;51265;53.972;12.286;2022-12-20T02:35:31;53.65;;;19.35;;
64826;SDS011;51265;53.972;12.286;2022-12-20T02:38:03;52.78;;;19.23;;
64826;SDS011;51265;53.972;12.286;2022-12-20T02:40:50;46.15;;;19.20;;
64826;SDS011;51265;53.972;12.286;2022-12-20T02:43:24;55.53;;;19.98;;
64826;SDS011;51265;53.972;12.286;2022-12-20T02:46:13;63.00;;;20.60;;
64826;SDS011;51265;53.972;12.286;2022-12-20T02:48:41;49.97;;;21.00;;
64826;SDS011;51265;53.972;12.286;2022-12-20T02:51:08;51.30;;;21.13;;
64826;SDS011;51265;53.972;12.286;2022-12-20T02:53:36;62.65;;;21.40;;
64826;SDS011;51265;53.972;12.286;2022-12-20T02:58:52;58.63;;;21.08;;
64826;SDS011;51265;53.972;12.286;2022-12-20T03:01:28;54.97;;;21.08;;
64826;SDS011;51265;53.972;12.286;2022-12-20T03:03:58;53.47;;;20.08;;
64826;SDS011;51265;53.972;12.286;2022-12-20T03:06:26;52.65;;;21.90;;
64826;SDS011;51265;53.972;12.286;2022-12-20T03:08:56;54.20;;;20.23;;
64826;SDS011;51265;53.972;12.286;2022-12-20T03:11:26;51.58;;;20.80;;
64826;SDS011;51265;53.972;12.286;2022-12-20T03:13:53;59.30;;;22.27;;
64826;SDS011;51265;53.972;12.286;2022-12-20T03:16:19;53.35;;;20.38;;
64826;SDS011;51265;53.972;12.286;2022-12-20T03:30:17;54.13;;;19.80;;
64826;SDS011;51265;53.972;12.286;2022-12-20T03:32:43;52.25;;;19.80;;
64826;SDS011;51265;53.972;12.286;2022-12-20T03:35:11;54.60;;;21.67;;
64826;SDS011;51265;53.972;12.286;2022-12-20T03:37:40;47.15;;;19.73;;
64826;SDS011;51265;53.972;12.286;2022-12-20T03:40:07;48.30;;;19.85;;
64826;SDS011;51265;53.972;12.286;2022-12-20T03:42:35;54.50;;;20.95;;
64826;SDS011;51265;53.972;12.286;2022-12-20T03:45:01;48.97;;;20.27;;
64826;SDS011;51265;53.972;12.286;2022-12-20T03:47:30;51.42;;;20.75;;
64826;SDS011;51265;53.972;12.286;2022-12-20T03:49:56;43.47;;;19.55;;
64826;SDS011;51265;53.972;12.286;2022-12-20T03:52:23;52.30;;;20.83;;
64826;SDS011;51265;53.972;12.286;2022-12-20T03:54:49;55.35;;;20.73;;
64826;SDS011;51265;53.972;12.286;2022-12-20T03:57:19;57.58;;;21.25;;
64826;SDS011;51265;53.972;12.286;2022-12-20T03:59:48;54.83;;;20.42;;
64826;SDS011;51265;53.972;12.286;2022-12-20T04:02:16;47.25;;;20.70;;
64826;SDS011;51265;53.972;12.286;2022-12-20T04:04:42;51.63;;;20.42;;
64826;SDS011;51265;53.972;12.286;2022-12-20T04:07:08;47.95;;;20.20;;
64826;SDS011;51265;53.972;12.286;2022-12-20T04:09:38;47.90;;;20.27;;
64826;SDS011;51265;53.972;12.286;2022-12-20T04:12:10;46.53;;;20.75;;
64826;SDS011;51265;53.972;12.286;2022-12-20T04:14:43;50.53;;;19.55;;
64826;SDS011;51265;53.972;12.286;2022-12-20T04:17:11;50.75;;;19.77;;
64826;SDS011;51265;53.972;12.286;2022-12-20T04:20:06;44.45;;;18.77;;
64826;SDS011;51265;53.972;12.286;2022-12-20T04:22:50;58.70;;;20.92;;
64826;SDS011;51265;53.972;12.286;2022-12-20T04:25:18;53.20;;;20.08;;
64826;SDS011;51265;53.972;12.286;2022-12-20T04:27:46;57.28;;;20.58;;
64826;SDS011;51265;53.972;12.286;2022-12-20T04:30:13;53.58;;;21.27;;
64826;SDS011;51265;53.972;12.286;2022-12-20T04:32:40;57.58;;;20.33;;
64826;SDS011;51265;53.972;12.286;2022-12-20T04:35:06;44.13;;;20.08;;
64826;SDS011;51265;53.972;12.286;2022-12-20T04:37:38;47.63;;;19.33;;
64826;SDS011;51265;53.972;12.286;2022-12-20T04:40:05;49.25;;;20.55;;
64826;SDS011;51265;53.972;12.286;2022-12-20T04:42:43;52.75;;;20.98;;
64826;SDS011;51265;53.972;12.286;2022-12-20T04:45:11;51.40;;;20.80;;
64826;SDS011;51265;53.972;12.286;2022-12-20T04:47:38;44.63;;;19.95;;
64826;SDS011;51265;53.972;12.286;2022-12-20T04:50:06;43.35;;;19.85;;
64826;SDS011;51265;53.972;12.286;2022-12-20T04:52:32;45.80;;;20.17;;
64826;SDS011;51265;53.972;12.286;2022-12-20T04:55:17;55.90;;;20.77;;
64826;SDS011;51265;53.972;12.286;2022-12-20T04:57:44;49.20;;;19.95;;
64826;SDS011;51265;53.972;12.286;2022-12-20T05:00:20;56.65;;;20.23;;
64826;SDS011;51265;53.972;12.286;2022-12-20T05:02:54;45.90;;;19.85;;
64826;SDS011;51265;53.972;12.286;2022-12-20T05:05:23;48.03;;;19.75;;
64826;SDS011;51265;53.972;12.286;2022-12-20T05:07:53;43.80;;;19.38;;
64826;SDS011;51265;53.972;12.286;2022-12-20T05:10:20;41.22;;;18.40;;
64826;SDS011;51265;53.972;12.286;2022-12-20T05:12:47;42.35;;;18.70;;
64826;SDS011;51265;53.972;12.286;2022-12-20T05:15:23;44.22;;;20.05;;
64826;SDS011;51265;53.972;12.286;2022-12-20T05:17:49;44.20;;;19.00;;
64826;SDS011;51265;53.972;12.286;2022-12-20T05:20:16;38.05;;;17.10;;
64826;SDS011;51265;53.972;12.286;2022-12-20T05:22:45;41.28;;;18.35;;
64826;SDS011;51265;53.972;12.286;2022-12-20T05:25:33;51.55;;;19.05;;
64826;SDS011;51265;53.972;12.286;2022-12-20T05:28:18;45.83;;;19.25;;
64826;SDS011;51265;53.972;12.286;2022-12-20T05:30:44;52.97;;;20.27;;
64826;SDS011;51265;53.972;12.286;2022-12-20T05:33:11;42.80;;;19.45;;
64826;SDS011;51265;53.972;12.286;2022-12-20T05:35:41;41.45;;;18.27;;
64826;SDS011;51265;53.972;12.286;2022-12-20T05:38:11;47.63;;;19.63;;
64826;SDS011;51265;53.972;12.286;2022-12-20T05:40:39;44.35;;;19.10;;
64826;SDS011;51265;53.972;12.286;2022-12-20T05:43:06;53.63;;;22.58;;
64826;SDS011;51265;53.972;12.286;2022-12-20T05:45:38;49.85;;;20.63;;
64826;SDS011;51265;53.972;12.286;2022-12-20T05:48:12;44.08;;;18.77;;
64826;SDS011;51265;53.972;12.286;2022-12-20T05:50:41;48.60;;;19.42;;
64826;SDS011;51265;53.972;12.286;2022-12-20T05:53:27;42.03;;;18.70;;
64826;SDS011;51265;53.972;12.286;2022-12-20T05:55:57;42.10;;;18.63;;
64826;SDS011;51265;53.972;12.286;2022-12-20T06:01:35;42.95;;;18.50;;
64826;SDS011;51265;53.972;12.286;2022-12-20T06:04:03;43.55;;;18.92;;
64826;SDS011;51265;53.972;12.286;2022-12-20T06:06:32;43.53;;;18.90;;
64826;SDS011;51265;53.972;12.286;2022-12-20T06:08:59;45.20;;;18.95;;
64826;SDS011;51265;53.972;12.286;2022-12-20T06:11:45;39.13;;;17.92;;
64826;SDS011;51265;53.972;12.286;2022-12-20T06:14:13;39.78;;;18.08;;
64826;SDS011;51265;53.972;12.286;2022-12-20T06:16:44;42.08;;;18.55;;
64826;SDS011;51265;53.972;12.286;2022-12-20T06:19:13;42.75;;;18.08;;
64826;SDS011;51265;53.972;12.286;2022-12-20T06:21:40;35.40;;;17.23;;
64826;SDS011;51265;53.972;12.286;2022-12-20T06:24:09;38.83;;;19.02;;
64826;SDS011;51265;53.972;12.286;2022-12-20T06:26:39;42.95;;;18.27;;
64826;SDS011;51265;53.972;12.286;2022-12-20T06:29:08;43.72;;;18.25;;
64826;SDS011;51265;53.972;12.286;2022-12-20T06:31:43;40.35;;;17.80;;
64826;SDS011;51265;53.972;12.286;2022-12-20T06:34:10;48.38;;;18.15;;
64826;SDS011;51265;53.972;12.286;2022-12-20T06:36:39;38.03;;;17.88;;
64826;SDS011;51265;53.972;12.286;2022-12-20T06:39:09;40.28;;;19.23;;
64826;SDS011;51265;53.972;12.286;2022-12-20T06:41:40;40.38;;;17.77;;
64826;SDS011;51265;53.972;12.286;2022-12-20T06:44:07;44.30;;;19.10;;
64826;SDS011;51265;53.972;12.286;2022-12-20T06:46:33;37.97;;;17.55;;
64826;SDS011;51265;53.972;12.286;2022-12-20T06:49:00;44.95;;;19.50;;
64826;SDS011;51265;53.972;12.286;2022-12-20T06:51:27;49.97;;;19.58;;
64826;SDS011;51265;53.972;12.286;2022-12-20T06:53:54;42.78;;;18.63;;
64826;SDS011;51265;53.972;12.286;2022-12-20T06:56:22;52.08;;;19.85;;
64826;SDS011;51265;53.972;12.286;2022-12-20T06:59:08;49.72;;;18.85;;
64826;SDS011;51265;53.972;12.286;2022-12-20T07:01:35;44.80;;;19.42;;
64826;SDS011;51265;53.972;12.286;2022-12-20T07:04:02;46.58;;;18.52;;
64826;SDS011;51265;53.972;12.286;2022-12-20T07:06:28;44.50;;;18.52;;
64826;SDS011;51265;53.972;12.286;2022-12-20T07:08:55;50.17;;;19.50;;
64826;SDS011;51265;53.972;12.286;2022-12-20T07:11:21;52.33;;;19.70;;
64826;SDS011;51265;53.972;12.286;2022-12-20T07:13:48;47.13;;;19.85;;
64826;SDS011;51265;53.972;12.286;2022-12-20T07:16:15;44.20;;;18.65;;
64826;SDS011;51265;53.972;12.286;2022-12-20T07:18:41;48.97;;;18.58;;
64826;SDS011;51265;53.972;12.286;2022-12-20T07:21:07;58.55;;;20.27;;
64826;SDS011;51265;53.972;12.286;2022-12-20T07:23:34;61.00;;;20.00;;
64826;SDS011;51265;53.972;12.286;2022-12-20T07:26:00;50.05;;;20.02;;
64826;SDS011;51265;53.972;12.286;2022-12-20T07:28:28;58.72;;;19.63;;
64826;SDS011;51265;53.972;12.286;2022-12-20T07:30:58;54.92;;;20.50;;
64826;SDS011;51265;53.972;12.286;2022-12-20T07:33:26;51.63;;;19.42;;
64826;SDS011;51265;53.972;12.286;2022-12-20T07:35:59;46.55;;;20.05;;
64826;SDS011;51265;53.972;12.286;2022-12-20T07:38:26;43.33;;;18.48;;
64826;SDS011;51265;53.972;12.286;2022-12-20T07:40:53;55.97;;;20.38;;
64826;SDS011;51265;53.972;12.286;2022-12-20T07:43:20;54.08;;;19.60;;
64826;SDS011;51265;53.972;12.286;2022-12-20T07:46:08;53.45;;;20.27;;
64826;SDS011;51265;53.972;12.286;2022-12-20T07:48:38;54.17;;;20.38;;
64826;SDS011;51265;53.972;12.286;2022-12-20T07:51:07;57.58;;;21.48;;
64826;SDS011;51265;53.972;12.286;2022-12-20T07:53:39;54.75;;;20.70;;
64826;SDS011;51265;53.972;12.286;2022-12-20T07:56:10;45.17;;;18.77;;
64826;SDS011;51265;53.972;12.286;2022-12-20T07:58:38;48.10;;;20.23;;
64826;SDS011;51265;53.972;12.286;2022-12-20T08:01:07;51.35;;;20.75;;
64826;SDS011;51265;53.972;12.286;2022-12-20T08:03:46;54.85;;;20.95;;
64826;SDS011;51265;53.972;12.286;2022-12-20T08:06:16;49.35;;;20.05;;
64826;SDS011;51265;53.972;12.286;2022-12-20T08:08:45;49.25;;;21.00;;
64826;SDS011;51265;53.972;12.286;2022-12-20T08:11:14;53.70;;;22.75;;
64826;SDS011;51265;53.972;12.286;2022-12-20T08:13:43;57.38;;;21.85;;
64826;SDS011;51265;53.972;12.286;2022-12-20T08:16:10;57.63;;;22.35;;
64826;SDS011;51265;53.972;12.286;2022-12-20T08:18:36;61.15;;;22.52;;
64826;SDS011;51265;53.972;12.286;2022-12-20T08:21:02;53.70;;;21.67;;
64826;SDS011;51265;53.972;12.286;2022-12-20T08:23:29;45.03;;;20.40;;
64826;SDS011;51265;53.972;12.286;2022-12-20T08:25:55;57.88;;;21.65;;
64826;SDS011;51265;53.972;12.286;2022-12-20T08:28:26;45.35;;;20.02;;
64826;SDS011;51265;53.972;12.286;2022-12-20T08:30:52;57.50;;;21.80;;
64826;SDS011;51265;53.972;12.286;2022-12-20T08:33:25;63.45;;;22.27;;
64826;SDS011;51265;53.972;12.286;2022-12-20T08:35:58;58.47;;;22.20;;
64826;SDS011;51265;53.972;12.286;2022-12-20T08:38:26;59.65;;;22.80;;
64826;SDS011;51265;53.972;12.286;2022-12-20T08:41:06;60.20;;;22.92;;
64826;SDS011;51265;53.972;12.286;2022-12-20T08:43:38;58.28;;;22.48;;
64826;SDS011;51265;53.972;12.286;2022-12-20T08:46:05;57.97;;;22.10;;
64826;SDS011;51265;53.972;12.286;2022-12-20T08:48:33;65.55;;;22.63;;
64826;SDS011;51265;53.972;12.286;2022-12-20T08:51:00;50.72;;;21.27;;
64826;SDS011;51265;53.972;12.286;2022-12-20T08:53:29;68.85;;;23.90;;
64826;SDS011;51265;53.972;12.286;2022-12-20T08:56:06;63.20;;;22.25;;
64826;SDS011;51265;53.972;12.286;2022-12-20T08:58:35;73.65;;;23.98;;
64826;SDS011;51265;53.972;12.286;2022-12-20T09:01:03;71.13;;;23.70;;
64826;SDS011;51265;53.972;12.286;2022-12-20T09:03:31;57.95;;;22.40;;
64826;SDS011;51265;53.972;12.286;2022-12-20T09:05:59;70.10;;;23.88;;
64826;SDS011;51265;53.972;12.286;2022-12-20T09:08:25;65.18;;;23.27;;
64826;SDS011;51265;53.972;12.286;2022-12-20T09:10:52;55.97;;;22.52;;
64826;SDS011;51265;53.972;12.286;2022-12-20T09:13:19;60.28;;;23.33;;
64826;SDS011;51265;53.972;12.286;2022-12-20T09:15:46;59.00;;;21.67;;
64826;SDS011;51265;53.972;12.286;2022-12-20T09:18:12;58.28;;;22.55;;
64826;SDS011;51265;53.972;12.286;2022-12-20T09:20:42;56.08;;;23.17;;
64826;SDS011;51265;53.972;12.286;2022-12-20T09:23:12;48.63;;;22.20;;
64826;SDS011;51265;53.972;12.286;2022-12-20T09:25:38;46.28;;;21.50;;
64826;SDS011;51265;53.972;12.286;2022-12-20T09:28:05;57.78;;;21.27;;
64826;SDS011;51265;53.972;12.286;2022-12-20T09:30:31;60.85;;;21.58;;
64826;SDS011;51265;53.972;12.286;2022-12-20T09:32:58;58.38;;;22.02;;
64826;SDS011;51265;53.972;12.286;2022-12-20T09:35:24;62.25;;;22.65;;
64826;SDS011;51265;53.972;12.286;2022-12-20T09:37:51;53.28;;;21.30;;
64826;SDS011;51265;53.972;12.286;2022-12-20T09:40:19;51.70;;;21.63;;
64826;SDS011;51265;53.972;12.286;2022-12-20T09:42:49;52.88;;;21.50;;
64826;SDS011;51265;53.972;12.286;2022-12-20T09:45:28;59.75;;;23.60;;
64826;SDS011;51265;53.972;12.286;2022-12-20T09:48:01;55.88;;;22.48;;
64826;SDS011;51265;53.972;12.286;2022-12-20T09:50:42;47.35;;;21.52;;
64826;SDS011;51265;53.972;12.286;2022-12-20T10:01:21;53.75;;;21.40;;
64826;SDS011;51265;53.972;12.286;2022-12-20T10:03:52;46.08;;;19.88;;
64826;SDS011;51265;53.972;12.286;2022-12-20T10:06:36;44.47;;;20.67;;
64826;SDS011;51265;53.972;12.286;2022-12-20T10:25:20;38.70;;;18.25;;
64826;SDS011;51265;53.972;12.286;2022-12-20T10:27:49;39.33;;;16.95;;
64826;SDS011;51265;53.972;12.286;2022-12-20T10:30:20;41.28;;;18.88;;
64826;SDS011;51265;53.972;12.286;2022-12-20T10:32:49;36.63;;;17.85;;
64826;SDS011;51265;53.972;12.286;2022-12-20T10:37:57;41.10;;;18.35;;
64826;SDS011;51265;53.972;12.286;2022-12-20T10:40:29;35.35;;;18.27;;
64826;SDS011;51265;53.972;12.286;2022-12-20T10:43:04;43.95;;;17.70;;
64826;SDS011;51265;53.972;12.286;2022-12-20T10:45:35;42.00;;;18.15;;
64826;SDS011;51265;53.972;12.286;2022-12-20T10:48:05;34.75;;;17.50;;
64826;SDS011;51265;53.972;12.286;2022-12-20T10:50:59;41.25;;;18.80;;
64826;SDS011;51265;53.972;12.286;2022-12-20T10:53:28;44.63;;;19.23;;
64826;SDS011;51265;53.972;12.286;2022-12-20T10:56:30;39.05;;;18.02;;
64826;SDS011;51265;53.972;12.286;2022-12-20T10:58:54;35.95;;;17.98;;
64826;SDS011;51265;53.972;12.286;2022-12-20T11:01:29;35.00;;;18.38;;
64826;SDS011;51265;53.972;12.286;2022-12-20T11:12:00;35.08;;;16.45;;
64826;SDS011;51265;53.972;12.286;2022-12-20T11:14:31;35.17;;;16.83;;
64826;SDS011;51265;53.972;12.286;2022-12-20T11:17:03;34.70;;;17.33;;
64826;SDS011;51265;53.972;12.286;2022-12-20T11:19:45;31.98;;;17.67;;
64826;SDS011;51265;53.972;12.286;2022-12-20T11:27:48;39.60;;;17.15;;
64826;SDS011;51265;53.972;12.286;2022-12-20T11:30:19;37.35;;;18.30;;
64826;SDS011;51265;53.972;12.286;2022-12-20T11:38:42;32.43;;;15.80;;
64826;SDS011;51265;53.972;12.286;2022-12-20T11:57:35;30.80;;;15.38;;
64826;SDS011;51265;53.972;12.286;2022-12-20T12:00:12;27.23;;;14.95;;
64826;SDS011;51265;53.972;12.286;2022-12-20T12:02:47;22.95;;;14.30;;
64826;SDS011;51265;53.972;12.286;2022-12-20T12:05:20;28.92;;;14.38;;
64826;SDS011;51265;53.972;12.286;2022-12-20T12:07:57;25.88;;;14.15;;
64826;SDS011;51265;53.972;12.286;2022-12-20T12:10:35;27.60;;;15.02;;
64826;SDS011;51265;53.972;12.286;2022-12-20T12:26:31;30.13;;;13.55;;
64826;SDS011;51265;53.972;12.286;2022-12-20T12:29:00;24.85;;;13.05;;
64826;SDS011;51265;53.972;12.286;2022-12-20T12:31:34;24.00;;;13.25;;
64826;SDS011;51265;53.972;12.286;2022-12-20T12:48:25;23.88;;;13.35;;
64826;SDS011;51265;53.972;12.286;2022-12-20T12:51:00;25.10;;;12.68;;
64826;SDS011;51265;53.972;12.286;2022-12-20T12:56:28;22.88;;;13.65;;
64826;SDS011;51265;53.972;12.286;2022-12-20T13:06:56;23.60;;;13.20;;
64826;SDS011;51265;53.972;12.286;2022-12-20T13:11:55;27.13;;;13.18;;
64826;SDS011;51265;53.972;12.286;2022-12-20T13:21:59;21.23;;;12.02;;
64826;SDS011;51265;53.972;12.286;2022-12-20T13:30:14;23.42;;;12.63;;
64826;SDS011;51265;53.972;12.286;2022-12-20T13:40:53;21.02;;;12.13;;
64826;SDS011;51265;53.972;12.286;2022-12-20T13:43:30;23.42;;;12.63;;
64826;SDS011;51265;53.972;12.286;2022-12-20T13:51:16;26.80;;;12.70;;
64826;SDS011;51265;53.972;12.286;2022-12-20T13:57:07;26.92;;;13.20;;
64826;SDS011;51265;53.972;12.286;2022-12-20T13:59:23;24.70;;;12.27;;
64826;SDS011;51265;53.972;12.286;2022-12-20T14:01:52;29.55;;;13.63;;
64826;SDS011;51265;53.972;12.286;2022-12-20T14:04:21;22.95;;;12.98;;
64826;SDS011;51265;53.972;12.286;2022-12-20T14:07:03;27.08;;;13.13;;
64826;SDS011;51265;53.972;12.286;2022-12-20T14:09:34;20.83;;;11.85;;
64826;SDS011;51265;53.972;12.286;2022-12-20T14:12:03;26.60;;;13.18;;
64826;SDS011;51265;53.972;12.286;2022-12-20T14:14:48;23.58;;;11.35;;
64826;SDS011;51265;53.972;12.286;2022-12-20T14:17:18;24.00;;;13.95;;
64826;SDS011;51265;53.972;12.286;2022-12-20T14:22:32;22.58;;;12.20;;
64826;SDS011;51265;53.972;12.286;2022-12-20T14:25:01;30.27;;;13.45;;
64826;SDS011;51265;53.972;12.286;2022-12-20T14:27:37;22.23;;;12.57;;
64826;SDS011;51265;53.972;12.286;2022-12-20T14:30:04;27.30;;;14.00;;
64826;SDS011;51265;53.972;12.286;2022-12-20T14:32:51;23.35;;;12.73;;
64826;SDS011;51265;53.972;12.286;2022-12-20T14:35:19;26.88;;;13.27;;
64826;SDS011;51265;53.972;12.286;2022-12-20T14:37:57;33.75;;;13.57;;
64826;SDS011;51265;53.972;12.286;2022-12-20T14:40:25;22.63;;;13.50;;
64826;SDS011;51265;53.972;12.286;2022-12-20T14:42:53;28.55;;;13.48;;
64826;SDS011;51265;53.972;12.286;2022-12-20T14:45:21;25.48;;;12.57;;
64826;SDS011;51265;53.972;12.286;2022-12-20T14:47:53;29.17;;;13.70;;
64826;SDS011;51265;53.972;12.286;2022-12-20T14:53:16;27.13;;;13.57;;
64826;SDS011;51265;53.972;12.286;2022-12-20T14:55:45;29.77;;;14.27;;
64826;SDS011;51265;53.972;12.286;2022-12-20T14:58:25;28.70;;;13.60;;
64826;SDS011;51265;53.972;12.286;2022-12-20T15:00:57;25.70;;;13.77;;
64826;SDS011;51265;53.972;12.286;2022-12-20T15:03:26;26.10;;;14.00;;
64826;SDS011;51265;53.972;12.286;2022-12-20T15:05:57;29.13;;;14.32;;
64826;SDS011;51265;53.972;12.286;2022-12-20T15:08:26;31.17;;;14.88;;
64826;SDS011;51265;53.972;12.286;2022-12-20T15:16:11;29.58;;;14.05;;
64826;SDS011;51265;53.972;12.286;2022-12-20T15:18:40;29.33;;;15.30;;
64826;SDS011;51265;53.972;12.286;2022-12-20T15:23:58;27.50;;;14.10;;
64826;SDS011;51265;53.972;12.286;2022-12-20T15:26:27;31.67;;;14.10;;
64826;SDS011;51265;53.972;12.286;2022-12-20T15:28:56;33.47;;;16.10;;
64826;SDS011;51265;53.972;12.286;2022-12-20T15:31:22;28.00;;;14.05;;
64826;SDS011;51265;53.972;12.286;2022-12-20T15:33:50;30.70;;;14.02;;
64826;SDS011;51265;53.972;12.286;2022-12-20T15:36:20;31.77;;;15.32;;
64826;SDS011;51265;53.972;12.286;2022-12-20T15:38:48;30.88;;;15.23;;
64826;SDS011;51265;53.972;12.286;2022-12-20T15:41:25;29.63;;;15.10;;
64826;SDS011;51265;53.972;12.286;2022-12-20T15:44:16;31.02;;;14.93;;
64826;SDS011;51265;53.972;12.286;2022-12-20T15:46:46;28.77;;;14.60;;
64826;SDS011;51265;53.972;12.286;2022-12-20T15:49:17;28.98;;;14.85;;
64826;SDS011;51265;53.972;12.286;2022-12-20T15:51:46;32.90;;;15.32;;
64826;SDS011;51265;53.972;12.286;2022-12-20T15:56:46;33.70;;;15.82;;
64826;SDS011;51265;53.972;12.286;2022-12-20T15:59:13;31.23;;;13.95;;
64826;SDS011;51265;53.972;12.286;2022-12-20T16:01:39;27.20;;;14.05;;
64826;SDS011;51265;53.972;12.286;2022-12-20T16:04:06;31.30;;;15.52;;
64826;SDS011;51265;53.972;12.286;2022-12-20T16:06:33;30.08;;;15.00;;
64826;SDS011;51265;53.972;12.286;2022-12-20T16:08:59;30.35;;;13.85;;
64826;SDS011;51265;53.972;12.286;2022-12-20T16:11:27;33.45;;;15.00;;
64826;SDS011;51265;53.972;12.286;2022-12-20T16:13:55;33.90;;;15.98;;
64826;SDS011;51265;53.972;12.286;2022-12-20T16:16:27;30.98;;;15.50;;
64826;SDS011;51265;53.972;12.286;2022-12-20T16:18:55;31.63;;;14.57;;
64826;SDS011;51265;53.972;12.286;2022-12-20T16:21:22;27.35;;;14.32;;
64826;SDS011;51265;53.972;12.286;2022-12-20T16:23:51;38.13;;;15.77;;
64826;SDS011;51265;53.972;12.286;2022-12-20T16:26:19;35.28;;;15.65;;
64826;SDS011;51265;53.972;12.286;2022-12-20T16:28:47;35.55;;;15.32;;
64826;SDS011;51265;53.972;12.286;2022-12-20T16:33:58;37.43;;;16.90;;
64826;SDS011;51265;53.972;12.286;2022-12-20T16:36:28;34.47;;;15.23;;
64826;SDS011;51265;53.972;12.286;2022-12-20T16:38:54;33.13;;;15.32;;
64826;SDS011;51265;53.972;12.286;2022-12-20T16:41:23;32.17;;;15.80;;
64826;SDS011;51265;53.972;12.286;2022-12-20T16:43:50;30.52;;;14.65;;
64826;SDS011;51265;53.972;12.286;2022-12-20T16:46:18;31.83;;;15.25;;
64826;SDS011;51265;53.972;12.286;2022-12-20T16:48:45;35.67;;;16.75;;
64826;SDS011;51265;53.972;12.286;2022-12-20T16:53:50;36.53;;;15.55;;
64826;SDS011;51265;53.972;12.286;2022-12-20T16:56:18;37.63;;;15.65;;
64826;SDS011;51265;53.972;12.286;2022-12-20T16:58:44;36.20;;;16.33;;
64826;SDS011;51265;53.972;12.286;2022-12-20T17:01:18;35.60;;;15.95;;
64826;SDS011;51265;53.972;12.286;2022-12-20T17:03:46;33.80;;;16.15;;
64826;SDS011;51265;53.972;12.286;2022-12-20T17:06:13;37.45;;;16.45;;
64826;SDS011;51265;53.972;12.286;2022-12-20T17:08:41;36.95;;;16.27;;
64826;SDS011;51265;53.972;12.286;2022-12-20T17:11:17;37.33;;;15.65;;
64826;SDS011;51265;53.972;12.286;2022-12-20T17:13:46;34.08;;;16.08;;
64826;SDS011;51265;53.972;12.286;2022-12-20T17:16:15;29.77;;;15.38;;
64826;SDS011;51265;53.972;12.286;2022-12-20T17:18:43;33.22;;;15.73;;
64826;SDS011;51265;53.972;12.286;2022-12-20T17:23:44;41.33;;;16.67;;
64826;SDS011;51265;53.972;12.286;2022-12-20T17:26:18;40.17;;;16.58;;
64826;SDS011;51265;53.972;12.286;2022-12-20T17:28:50;47.60;;;18.13;;
64826;SDS011;51265;53.972;12.286;2022-12-20T17:31:52;35.22;;;15.18;;
64826;SDS011;51265;53.972;12.286;2022-12-20T17:36:47;35.65;;;16.20;;
64826;SDS011;51265;53.972;12.286;2022-12-20T17:39:15;36.15;;;17.13;;
64826;SDS011;51265;53.972;12.286;2022-12-20T17:41:42;36.72;;;16.42;;
64826;SDS011;51265;53.972;12.286;2022-12-20T17:46:44;37.17;;;18.40;;